sensor_id;sensor_type;location;lat;lon;timestamp;pressure;altitude;pressure_sealevel;temperature
70415;BMP280;57837;52.064;113.478;2024-01-30T00:02:16;94991.19;;;-30.41
70415;BMP280;57837;52.064;113.478;2024-01-30T00:05:20;94993.09;;;-30.35
70415;BMP280;57837;52.064;113.478;2024-01-30T00:08:24;95000.63;;;-30.38
70415;BMP280;57837;52.064;113.478;2024-01-30T00:11:28;94992.50;;;-30.37
70415;BMP280;57837;52.064;113.478;2024-01-30T00:14:32;94994.38;;;-30.70
70415;BMP280;57837;52.064;113.478;2024-01-30T00:17:36;94994.38;;;-30.60
70415;BMP280;57837;52.064;113.478;2024-01-30T00:20:40;94998.84;;;-30.65
70415;BMP280;57837;52.064;113.478;2024-01-30T00:23:44;94995.13;;;-30.88
70415;BMP280;57837;52.064;113.478;2024-01-30T00:26:47;95005.34;;;-30.85
70415;BMP280;57837;52.064;113.478;2024-01-30T00:29:51;95009.16;;;-31.02
70415;BMP280;57837;52.064;113.478;2024-01-30T00:32:54;95004.81;;;-31.08
70415;BMP280;57837;52.064;113.478;2024-01-30T00:35:58;95009.63;;;-31.08
70415;BMP280;57837;52.064;113.478;2024-01-30T00:39:01;95012.75;;;-31.17
70415;BMP280;57837;52.064;113.478;2024-01-30T00:42:09;95021.72;;;-31.08
70415;BMP280;57837;52.064;113.478;2024-01-30T00:45:14;95028.34;;;-30.90
70415;BMP280;57837;52.064;113.478;2024-01-30T00:48:18;95025.19;;;-30.62
70415;BMP280;57837;52.064;113.478;2024-01-30T00:51:22;95021.50;;;-30.37
70415;BMP280;57837;52.064;113.478;2024-01-30T00:54:26;95020.47;;;-30.34
70415;BMP280;57837;52.064;113.478;2024-01-30T00:57:30;95027.84;;;-30.26
70415;BMP280;57837;52.064;113.478;2024-01-30T01:00:34;95033.06;;;-30.02
70415;BMP280;57837;52.064;113.478;2024-01-30T01:03:38;95026.63;;;-29.64
70415;BMP280;57837;52.064;113.478;2024-01-30T01:06:44;95031.84;;;-29.41
70415;BMP280;57837;52.064;113.478;2024-01-30T01:09:47;95022.50;;;-29.08
70415;BMP280;57837;52.064;113.478;2024-01-30T01:12:50;95026.50;;;-28.89
70415;BMP280;57837;52.064;113.478;2024-01-30T01:15:54;95025.09;;;-28.92
70415;BMP280;57837;52.064;113.478;2024-01-30T01:18:58;95020.47;;;-28.85
70415;BMP280;57837;52.064;113.478;2024-01-30T01:22:03;95026.31;;;-29.06
70415;BMP280;57837;52.064;113.478;2024-01-30T01:25:08;95029.22;;;-29.02
70415;BMP280;57837;52.064;113.478;2024-01-30T01:28:12;95034.03;;;-29.10
70415;BMP280;57837;52.064;113.478;2024-01-30T01:31:16;95031.97;;;-28.51
70415;BMP280;57837;52.064;113.478;2024-01-30T01:34:21;95034.94;;;-28.75
70415;BMP280;57837;52.064;113.478;2024-01-30T01:37:26;95035.09;;;-28.95
70415;BMP280;57837;52.064;113.478;2024-01-30T01:40:30;95034.03;;;-28.92
70415;BMP280;57837;52.064;113.478;2024-01-30T01:43:33;95033.56;;;-28.60
70415;BMP280;57837;52.064;113.478;2024-01-30T01:46:38;95041.38;;;-27.87
70415;BMP280;57837;52.064;113.478;2024-01-30T01:49:42;95041.22;;;-27.59
70415;BMP280;57837;52.064;113.478;2024-01-30T01:52:49;95047.34;;;-27.47
70415;BMP280;57837;52.064;113.478;2024-01-30T01:55:54;95051.44;;;-27.05
70415;BMP280;57837;52.064;113.478;2024-01-30T01:59:00;95046.16;;;-26.76
70415;BMP280;57837;52.064;113.478;2024-01-30T02:02:11;95038.56;;;-26.56
70415;BMP280;57837;52.064;113.478;2024-01-30T02:05:15;95038.75;;;-26.66
70415;BMP280;57837;52.064;113.478;2024-01-30T02:08:19;95040.88;;;-26.63
70415;BMP280;57837;52.064;113.478;2024-01-30T02:11:24;95037.34;;;-26.69
70415;BMP280;57837;52.064;113.478;2024-01-30T02:14:27;95032.03;;;-26.88
70415;BMP280;57837;52.064;113.478;2024-01-30T02:17:33;95033.69;;;-26.89
70415;BMP280;57837;52.064;113.478;2024-01-30T02:20:37;95038.69;;;-26.82
70415;BMP280;57837;52.064;113.478;2024-01-30T02:23:47;95037.31;;;-26.85
70415;BMP280;57837;52.064;113.478;2024-01-30T02:26:51;95030.16;;;-26.86
70415;BMP280;57837;52.064;113.478;2024-01-30T02:29:54;95030.34;;;-26.63
70415;BMP280;57837;52.064;113.478;2024-01-30T02:32:58;95031.56;;;-26.59
70415;BMP280;57837;52.064;113.478;2024-01-30T02:36:01;95035.38;;;-26.41
70415;BMP280;57837;52.064;113.478;2024-01-30T02:39:05;95029.56;;;-26.15
70415;BMP280;57837;52.064;113.478;2024-01-30T02:42:09;95029.06;;;-25.94
70415;BMP280;57837;52.064;113.478;2024-01-30T02:45:13;95047.75;;;-25.62
70415;BMP280;57837;52.064;113.478;2024-01-30T02:48:16;95042.03;;;-25.46
70415;BMP280;57837;52.064;113.478;2024-01-30T02:51:19;95038.81;;;-25.47
70415;BMP280;57837;52.064;113.478;2024-01-30T02:54:23;95041.84;;;-25.28
70415;BMP280;57837;52.064;113.478;2024-01-30T02:57:28;95044.13;;;-25.35
70415;BMP280;57837;52.064;113.478;2024-01-30T03:00:32;95042.16;;;-25.39
70415;BMP280;57837;52.064;113.478;2024-01-30T03:03:35;95040.28;;;-25.29
70415;BMP280;57837;52.064;113.478;2024-01-30T03:06:45;95036.56;;;-24.86
70415;BMP280;57837;52.064;113.478;2024-01-30T03:09:49;95034.25;;;-24.87
70415;BMP280;57837;52.064;113.478;2024-01-30T03:12:53;95035.00;;;-24.64
70415;BMP280;57837;52.064;113.478;2024-01-30T03:15:56;95037.06;;;-24.30
70415;BMP280;57837;52.064;113.478;2024-01-30T03:19:00;95033.72;;;-23.99
70415;BMP280;57837;52.064;113.478;2024-01-30T03:22:05;95037.34;;;-23.29
70415;BMP280;57837;52.064;113.478;2024-01-30T03:25:08;95037.31;;;-22.78
70415;BMP280;57837;52.064;113.478;2024-01-30T03:28:11;95026.03;;;-22.45
70415;BMP280;57837;52.064;113.478;2024-01-30T03:31:15;95013.97;;;-22.25
70415;BMP280;57837;52.064;113.478;2024-01-30T03:34:19;95013.19;;;-22.19
70415;BMP280;57837;52.064;113.478;2024-01-30T03:37:22;95010.34;;;-22.29
70415;BMP280;57837;52.064;113.478;2024-01-30T03:40:25;95009.56;;;-22.01
70415;BMP280;57837;52.064;113.478;2024-01-30T03:43:29;95008.50;;;-21.85
70415;BMP280;57837;52.064;113.478;2024-01-30T03:46:32;94999.97;;;-21.96
70415;BMP280;57837;52.064;113.478;2024-01-30T03:49:35;94993.38;;;-21.82
70415;BMP280;57837;52.064;113.478;2024-01-30T03:52:39;94985.56;;;-21.51
70415;BMP280;57837;52.064;113.478;2024-01-30T03:55:43;94987.94;;;-21.17
70415;BMP280;57837;52.064;113.478;2024-01-30T03:58:47;94994.72;;;-20.99
70415;BMP280;57837;52.064;113.478;2024-01-30T04:01:50;94987.94;;;-20.90
70415;BMP280;57837;52.064;113.478;2024-01-30T04:04:54;94980.19;;;-20.87
70415;BMP280;57837;52.064;113.478;2024-01-30T04:07:59;94975.81;;;-20.78
70415;BMP280;57837;52.064;113.478;2024-01-30T04:11:06;94973.75;;;-20.95
70415;BMP280;57837;52.064;113.478;2024-01-30T04:14:10;94969.19;;;-21.04
70415;BMP280;57837;52.064;113.478;2024-01-30T04:17:14;94959.75;;;-21.21
70415;BMP280;57837;52.064;113.478;2024-01-30T04:20:17;94961.72;;;-21.77
70415;BMP280;57837;52.064;113.478;2024-01-30T04:23:21;94957.25;;;-22.08
70415;BMP280;57837;52.064;113.478;2024-01-30T04:26:26;94961.13;;;-22.21
70415;BMP280;57837;52.064;113.478;2024-01-30T04:29:30;94959.88;;;-22.10
70415;BMP280;57837;52.064;113.478;2024-01-30T04:32:33;94947.94;;;-22.20
70415;BMP280;57837;52.064;113.478;2024-01-30T04:35:37;94954.19;;;-22.10
70415;BMP280;57837;52.064;113.478;2024-01-30T04:38:41;94947.88;;;-21.92
70415;BMP280;57837;52.064;113.478;2024-01-30T04:41:44;94938.84;;;-21.78
70415;BMP280;57837;52.064;113.478;2024-01-30T04:44:48;94948.59;;;-21.98
70415;BMP280;57837;52.064;113.478;2024-01-30T04:47:52;94953.81;;;-21.73
70415;BMP280;57837;52.064;113.478;2024-01-30T04:50:56;94953.72;;;-21.18
70415;BMP280;57837;52.064;113.478;2024-01-30T04:53:59;94952.38;;;-21.27
70415;BMP280;57837;52.064;113.478;2024-01-30T04:57:04;94945.13;;;-21.69
70415;BMP280;57837;52.064;113.478;2024-01-30T05:00:11;94952.78;;;-21.92
70415;BMP280;57837;52.064;113.478;2024-01-30T05:03:21;94951.59;;;-22.09
70415;BMP280;57837;52.064;113.478;2024-01-30T05:06:29;94955.19;;;-22.05
70415;BMP280;57837;52.064;113.478;2024-01-30T05:09:34;94948.59;;;-22.04
70415;BMP280;57837;52.064;113.478;2024-01-30T05:12:38;94944.63;;;-22.05
70415;BMP280;57837;52.064;113.478;2024-01-30T05:15:42;94934.16;;;-21.73
70415;BMP280;57837;52.064;113.478;2024-01-30T05:18:45;94937.03;;;-21.69
70415;BMP280;57837;52.064;113.478;2024-01-30T05:21:48;94937.94;;;-21.70
70415;BMP280;57837;52.064;113.478;2024-01-30T05:24:52;94939.66;;;-21.64
70415;BMP280;57837;52.064;113.478;2024-01-30T05:27:56;94931.69;;;-21.79
70415;BMP280;57837;52.064;113.478;2024-01-30T05:31:00;94933.63;;;-21.55
70415;BMP280;57837;52.064;113.478;2024-01-30T05:34:04;94934.78;;;-21.31
70415;BMP280;57837;52.064;113.478;2024-01-30T05:37:32;94931.94;;;-21.34
70415;BMP280;57837;52.064;113.478;2024-01-30T05:40:35;94931.97;;;-21.15
70415;BMP280;57837;52.064;113.478;2024-01-30T05:43:38;94934.22;;;-20.80
70415;BMP280;57837;52.064;113.478;2024-01-30T05:46:42;94926.06;;;-20.67
70415;BMP280;57837;52.064;113.478;2024-01-30T05:49:46;94922.88;;;-20.61
70415;BMP280;57837;52.064;113.478;2024-01-30T05:52:50;94928.13;;;-20.44
70415;BMP280;57837;52.064;113.478;2024-01-30T05:55:55;94925.47;;;-20.49
70415;BMP280;57837;52.064;113.478;2024-01-30T05:58:59;94921.88;;;-20.40
70415;BMP280;57837;52.064;113.478;2024-01-30T06:02:03;94913.53;;;-20.39
70415;BMP280;57837;52.064;113.478;2024-01-30T06:05:07;94912.81;;;-20.53
70415;BMP280;57837;52.064;113.478;2024-01-30T06:08:11;94913.06;;;-20.94
70415;BMP280;57837;52.064;113.478;2024-01-30T06:11:15;94911.00;;;-21.17
70415;BMP280;57837;52.064;113.478;2024-01-30T06:14:18;94910.81;;;-21.29
70415;BMP280;57837;52.064;113.478;2024-01-30T06:17:23;94905.91;;;-21.22
70415;BMP280;57837;52.064;113.478;2024-01-30T06:20:27;94900.22;;;-21.03
70415;BMP280;57837;52.064;113.478;2024-01-30T06:23:32;94897.69;;;-20.63
70415;BMP280;57837;52.064;113.478;2024-01-30T06:26:35;94893.88;;;-20.46
70415;BMP280;57837;52.064;113.478;2024-01-30T06:29:38;94888.81;;;-20.57
70415;BMP280;57837;52.064;113.478;2024-01-30T06:32:42;94893.03;;;-20.84
70415;BMP280;57837;52.064;113.478;2024-01-30T06:35:45;94889.06;;;-20.85
70415;BMP280;57837;52.064;113.478;2024-01-30T06:38:49;94897.59;;;-20.95
70415;BMP280;57837;52.064;113.478;2024-01-30T06:41:53;94885.84;;;-21.06
70415;BMP280;57837;52.064;113.478;2024-01-30T06:44:57;94888.69;;;-20.89
70415;BMP280;57837;52.064;113.478;2024-01-30T06:48:01;94888.50;;;-20.87
70415;BMP280;57837;52.064;113.478;2024-01-30T06:51:05;94890.19;;;-20.75
70415;BMP280;57837;52.064;113.478;2024-01-30T06:54:09;94898.88;;;-20.66
70415;BMP280;57837;52.064;113.478;2024-01-30T06:57:13;94890.72;;;-20.59
70415;BMP280;57837;52.064;113.478;2024-01-30T07:00:18;94894.44;;;-20.50
70415;BMP280;57837;52.064;113.478;2024-01-30T07:03:23;94896.84;;;-20.24
70415;BMP280;57837;52.064;113.478;2024-01-30T07:06:27;94894.34;;;-20.11
70415;BMP280;57837;52.064;113.478;2024-01-30T07:09:31;94893.66;;;-19.93
70415;BMP280;57837;52.064;113.478;2024-01-30T07:12:35;94899.97;;;-20.03
70415;BMP280;57837;52.064;113.478;2024-01-30T07:15:38;94896.75;;;-20.04
70415;BMP280;57837;52.064;113.478;2024-01-30T07:18:46;94900.72;;;-20.03
70415;BMP280;57837;52.064;113.478;2024-01-30T07:21:50;94902.09;;;-20.20
70415;BMP280;57837;52.064;113.478;2024-01-30T07:24:54;94904.19;;;-20.17
70415;BMP280;57837;52.064;113.478;2024-01-30T07:27:58;94904.72;;;-20.08
70415;BMP280;57837;52.064;113.478;2024-01-30T07:31:01;94895.09;;;-20.10
70415;BMP280;57837;52.064;113.478;2024-01-30T07:34:05;94905.31;;;-20.13
70415;BMP280;57837;52.064;113.478;2024-01-30T07:37:09;94905.09;;;-20.05
70415;BMP280;57837;52.064;113.478;2024-01-30T07:40:14;94900.56;;;-20.08
70415;BMP280;57837;52.064;113.478;2024-01-30T07:43:17;94895.22;;;-19.98
70415;BMP280;57837;52.064;113.478;2024-01-30T07:46:20;94901.00;;;-19.86
70415;BMP280;57837;52.064;113.478;2024-01-30T07:49:24;94897.41;;;-19.83
70415;BMP280;57837;52.064;113.478;2024-01-30T07:52:28;94905.00;;;-19.85
70415;BMP280;57837;52.064;113.478;2024-01-30T07:55:52;94907.69;;;-19.93
70415;BMP280;57837;52.064;113.478;2024-01-30T07:58:58;94903.88;;;-19.89
70415;BMP280;57837;52.064;113.478;2024-01-30T08:02:01;94891.59;;;-19.96
70415;BMP280;57837;52.064;113.478;2024-01-30T08:05:06;94902.09;;;-20.07
70415;BMP280;57837;52.064;113.478;2024-01-30T08:08:10;94905.22;;;-19.93
70415;BMP280;57837;52.064;113.478;2024-01-30T08:11:14;94897.63;;;-19.85
70415;BMP280;57837;52.064;113.478;2024-01-30T08:14:18;94907.56;;;-20.05
70415;BMP280;57837;52.064;113.478;2024-01-30T08:17:24;94900.22;;;-20.25
70415;BMP280;57837;52.064;113.478;2024-01-30T08:20:27;94900.63;;;-20.28
70415;BMP280;57837;52.064;113.478;2024-01-30T08:23:32;94904.22;;;-20.24
70415;BMP280;57837;52.064;113.478;2024-01-30T08:26:35;94899.28;;;-20.24
70415;BMP280;57837;52.064;113.478;2024-01-30T08:29:40;94896.13;;;-20.31
70415;BMP280;57837;52.064;113.478;2024-01-30T08:32:44;94899.56;;;-20.45
70415;BMP280;57837;52.064;113.478;2024-01-30T08:35:49;94900.50;;;-20.46
70415;BMP280;57837;52.064;113.478;2024-01-30T08:38:52;94905.59;;;-20.54
70415;BMP280;57837;52.064;113.478;2024-01-30T08:42:01;94910.97;;;-20.57
70415;BMP280;57837;52.064;113.478;2024-01-30T08:45:06;94903.72;;;-20.52
70415;BMP280;57837;52.064;113.478;2024-01-30T08:48:10;94903.56;;;-20.57
70415;BMP280;57837;52.064;113.478;2024-01-30T08:51:14;94911.16;;;-20.66
70415;BMP280;57837;52.064;113.478;2024-01-30T08:54:19;94906.78;;;-20.64
70415;BMP280;57837;52.064;113.478;2024-01-30T08:57:22;94906.06;;;-20.71
70415;BMP280;57837;52.064;113.478;2024-01-30T09:00:26;94898.09;;;-20.73
70415;BMP280;57837;52.064;113.478;2024-01-30T09:03:30;94910.38;;;-20.73
70415;BMP280;57837;52.064;113.478;2024-01-30T09:06:35;94912.09;;;-20.73
70415;BMP280;57837;52.064;113.478;2024-01-30T09:09:39;94914.41;;;-20.98
70415;BMP280;57837;52.064;113.478;2024-01-30T09:12:46;94911.19;;;-21.19
70415;BMP280;57837;52.064;113.478;2024-01-30T09:15:49;94911.97;;;-21.25
70415;BMP280;57837;52.064;113.478;2024-01-30T09:18:53;94908.16;;;-21.27
70415;BMP280;57837;52.064;113.478;2024-01-30T09:21:57;94913.28;;;-21.29
70415;BMP280;57837;52.064;113.478;2024-01-30T09:25:02;94904.75;;;-21.46
70415;BMP280;57837;52.064;113.478;2024-01-30T09:28:05;94905.13;;;-21.56
70415;BMP280;57837;52.064;113.478;2024-01-30T09:31:10;94909.84;;;-21.61
70415;BMP280;57837;52.064;113.478;2024-01-30T09:34:14;94913.22;;;-21.69
70415;BMP280;57837;52.064;113.478;2024-01-30T09:37:19;94915.66;;;-21.75
70415;BMP280;57837;52.064;113.478;2024-01-30T09:40:26;94920.97;;;-21.65
70415;BMP280;57837;52.064;113.478;2024-01-30T09:43:33;94927.19;;;-21.69
70415;BMP280;57837;52.064;113.478;2024-01-30T09:46:40;94916.41;;;-21.81
70415;BMP280;57837;52.064;113.478;2024-01-30T09:49:44;94924.09;;;-21.91
70415;BMP280;57837;52.064;113.478;2024-01-30T09:52:47;94919.75;;;-21.96
70415;BMP280;57837;52.064;113.478;2024-01-30T09:55:53;94928.22;;;-22.05
70415;BMP280;57837;52.064;113.478;2024-01-30T09:58:57;94930.47;;;-22.03
70415;BMP280;57837;52.064;113.478;2024-01-30T10:02:01;94928.38;;;-22.06
70415;BMP280;57837;52.064;113.478;2024-01-30T10:05:08;94932.47;;;-22.20
70415;BMP280;57837;52.064;113.478;2024-01-30T10:08:12;94935.44;;;-22.31
70415;BMP280;57837;52.064;113.478;2024-01-30T10:11:17;94938.44;;;-22.36
70415;BMP280;57837;52.064;113.478;2024-01-30T10:14:22;94941.53;;;-22.55
70415;BMP280;57837;52.064;113.478;2024-01-30T10:17:26;94934.28;;;-22.70
70415;BMP280;57837;52.064;113.478;2024-01-30T10:20:36;94946.13;;;-22.74
70415;BMP280;57837;52.064;113.478;2024-01-30T10:23:40;94943.88;;;-22.69
70415;BMP280;57837;52.064;113.478;2024-01-30T10:26:44;94954.03;;;-22.78
70415;BMP280;57837;52.064;113.478;2024-01-30T10:29:48;94952.16;;;-22.98
70415;BMP280;57837;52.064;113.478;2024-01-30T10:32:53;94961.16;;;-23.05
70415;BMP280;57837;52.064;113.478;2024-01-30T10:36:04;94953.22;;;-23.07
70415;BMP280;57837;52.064;113.478;2024-01-30T10:39:09;94956.81;;;-23.09
70415;BMP280;57837;52.064;113.478;2024-01-30T10:42:15;94955.44;;;-23.12
70415;BMP280;57837;52.064;113.478;2024-01-30T10:45:22;94963.31;;;-23.16
70415;BMP280;57837;52.064;113.478;2024-01-30T10:48:29;94964.41;;;-23.19
70415;BMP280;57837;52.064;113.478;2024-01-30T10:51:37;94957.59;;;-23.24
70415;BMP280;57837;52.064;113.478;2024-01-30T10:54:44;94968.28;;;-23.25
70415;BMP280;57837;52.064;113.478;2024-01-30T10:57:49;94972.63;;;-23.27
70415;BMP280;57837;52.064;113.478;2024-01-30T11:00:54;94977.25;;;-23.38
70415;BMP280;57837;52.064;113.478;2024-01-30T11:03:59;94978.47;;;-23.28
70415;BMP280;57837;52.064;113.478;2024-01-30T11:07:02;94977.66;;;-23.35
70415;BMP280;57837;52.064;113.478;2024-01-30T11:10:07;94985.75;;;-23.34
70415;BMP280;57837;52.064;113.478;2024-01-30T11:13:13;94986.72;;;-23.29
70415;BMP280;57837;52.064;113.478;2024-01-30T11:16:20;94989.16;;;-23.29
70415;BMP280;57837;52.064;113.478;2024-01-30T11:19:31;94991.59;;;-23.29
70415;BMP280;57837;52.064;113.478;2024-01-30T11:22:35;94994.19;;;-23.37
70415;BMP280;57837;52.064;113.478;2024-01-30T11:25:39;94990.69;;;-23.28
70415;BMP280;57837;52.064;113.478;2024-01-30T11:28:52;94994.28;;;-23.45
70415;BMP280;57837;52.064;113.478;2024-01-30T11:31:59;94997.44;;;-23.66
70415;BMP280;57837;52.064;113.478;2024-01-30T11:35:05;95006.47;;;-23.81
70415;BMP280;57837;52.064;113.478;2024-01-30T11:38:16;95010.38;;;-23.87
70415;BMP280;57837;52.064;113.478;2024-01-30T11:41:20;95009.03;;;-23.89
70415;BMP280;57837;52.064;113.478;2024-01-30T11:44:25;95015.19;;;-23.93
70415;BMP280;57837;52.064;113.478;2024-01-30T11:47:29;95012.03;;;-24.02
70415;BMP280;57837;52.064;113.478;2024-01-30T11:50:34;95016.44;;;-23.98
70415;BMP280;57837;52.064;113.478;2024-01-30T11:53:38;95024.53;;;-23.97
70415;BMP280;57837;52.064;113.478;2024-01-30T11:56:42;95023.78;;;-23.83
70415;BMP280;57837;52.064;113.478;2024-01-30T11:59:49;95015.94;;;-23.93
70415;BMP280;57837;52.064;113.478;2024-01-30T12:02:55;95018.63;;;-24.03
70415;BMP280;57837;52.064;113.478;2024-01-30T12:06:04;95022.44;;;-24.15
70415;BMP280;57837;52.064;113.478;2024-01-30T12:09:09;95023.50;;;-24.17
70415;BMP280;57837;52.064;113.478;2024-01-30T12:12:13;95027.38;;;-24.23
70415;BMP280;57837;52.064;113.478;2024-01-30T12:15:18;95024.34;;;-24.25
70415;BMP280;57837;52.064;113.478;2024-01-30T12:18:25;95022.22;;;-24.28
70415;BMP280;57837;52.064;113.478;2024-01-30T12:21:29;95032.34;;;-24.16
70415;BMP280;57837;52.064;113.478;2024-01-30T12:24:35;95024.19;;;-24.09
70415;BMP280;57837;52.064;113.478;2024-01-30T12:27:39;95032.59;;;-24.11
70415;BMP280;57837;52.064;113.478;2024-01-30T12:30:44;95032.72;;;-24.05
70415;BMP280;57837;52.064;113.478;2024-01-30T12:33:49;95025.28;;;-24.11
70415;BMP280;57837;52.064;113.478;2024-01-30T12:36:55;95029.50;;;-24.05
70415;BMP280;57837;52.064;113.478;2024-01-30T12:40:01;95034.28;;;-24.27
70415;BMP280;57837;52.064;113.478;2024-01-30T12:43:06;95031.16;;;-24.21
70415;BMP280;57837;52.064;113.478;2024-01-30T12:46:10;95040.31;;;-24.37
70415;BMP280;57837;52.064;113.478;2024-01-30T12:49:13;95036.44;;;-24.47
70415;BMP280;57837;52.064;113.478;2024-01-30T12:52:18;95036.94;;;-24.36
70415;BMP280;57837;52.064;113.478;2024-01-30T12:55:21;95038.22;;;-24.40
70415;BMP280;57837;52.064;113.478;2024-01-30T12:58:25;95039.84;;;-24.56
70415;BMP280;57837;52.064;113.478;2024-01-30T13:01:28;95045.53;;;-24.63
70415;BMP280;57837;52.064;113.478;2024-01-30T13:04:32;95055.00;;;-24.60
70415;BMP280;57837;52.064;113.478;2024-01-30T13:07:38;95053.84;;;-24.50
70415;BMP280;57837;52.064;113.478;2024-01-30T13:10:42;95048.31;;;-24.43
70415;BMP280;57837;52.064;113.478;2024-01-30T13:13:47;95055.47;;;-24.65
70415;BMP280;57837;52.064;113.478;2024-01-30T13:16:52;95054.63;;;-24.72
70415;BMP280;57837;52.064;113.478;2024-01-30T13:19:56;95054.84;;;-24.82
70415;BMP280;57837;52.064;113.478;2024-01-30T13:23:12;95047.72;;;-24.91
70415;BMP280;57837;52.064;113.478;2024-01-30T13:26:15;95064.22;;;-24.94
70415;BMP280;57837;52.064;113.478;2024-01-30T13:29:18;95070.50;;;-24.99
70415;BMP280;57837;52.064;113.478;2024-01-30T13:32:22;95070.78;;;-25.25
70415;BMP280;57837;52.064;113.478;2024-01-30T13:35:25;95074.50;;;-25.46
70415;BMP280;57837;52.064;113.478;2024-01-30T13:38:29;95084.47;;;-25.55
70415;BMP280;57837;52.064;113.478;2024-01-30T13:41:33;95083.91;;;-25.34
70415;BMP280;57837;52.064;113.478;2024-01-30T13:44:37;95077.69;;;-25.06
70415;BMP280;57837;52.064;113.478;2024-01-30T13:47:41;95083.88;;;-25.26
70415;BMP280;57837;52.064;113.478;2024-01-30T13:50:44;95074.44;;;-25.29
70415;BMP280;57837;52.064;113.478;2024-01-30T13:53:48;95080.03;;;-25.21
70415;BMP280;57837;52.064;113.478;2024-01-30T13:56:52;95084.16;;;-25.21
70415;BMP280;57837;52.064;113.478;2024-01-30T13:59:56;95085.53;;;-25.19
70415;BMP280;57837;52.064;113.478;2024-01-30T14:03:00;95087.19;;;-25.19
70415;BMP280;57837;52.064;113.478;2024-01-30T14:06:05;95086.00;;;-25.23
70415;BMP280;57837;52.064;113.478;2024-01-30T14:09:09;95084.06;;;-25.28
70415;BMP280;57837;52.064;113.478;2024-01-30T14:12:37;95086.19;;;-25.25
70415;BMP280;57837;52.064;113.478;2024-01-30T14:15:42;95086.94;;;-25.24
70415;BMP280;57837;52.064;113.478;2024-01-30T14:18:46;95080.28;;;-25.47
70415;BMP280;57837;52.064;113.478;2024-01-30T14:21:49;95084.16;;;-25.52
70415;BMP280;57837;52.064;113.478;2024-01-30T14:24:53;95091.91;;;-25.57
70415;BMP280;57837;52.064;113.478;2024-01-30T14:27:56;95083.09;;;-25.58
70415;BMP280;57837;52.064;113.478;2024-01-30T14:31:00;95097.56;;;-25.64
70415;BMP280;57837;52.064;113.478;2024-01-30T14:34:03;95097.13;;;-25.68
70415;BMP280;57837;52.064;113.478;2024-01-30T14:37:08;95096.19;;;-25.59
70415;BMP280;57837;52.064;113.478;2024-01-30T14:40:12;95090.69;;;-25.61
70415;BMP280;57837;52.064;113.478;2024-01-30T14:43:15;95091.53;;;-25.93
70415;BMP280;57837;52.064;113.478;2024-01-30T14:46:20;95096.88;;;-26.22
70415;BMP280;57837;52.064;113.478;2024-01-30T14:49:25;95094.44;;;-26.30
70415;BMP280;57837;52.064;113.478;2024-01-30T14:52:30;95104.00;;;-26.29
70415;BMP280;57837;52.064;113.478;2024-01-30T14:55:35;95113.13;;;-26.31
70415;BMP280;57837;52.064;113.478;2024-01-30T14:58:39;95111.31;;;-26.21
70415;BMP280;57837;52.064;113.478;2024-01-30T15:01:43;95110.59;;;-26.13
70415;BMP280;57837;52.064;113.478;2024-01-30T15:04:48;95101.75;;;-26.38
70415;BMP280;57837;52.064;113.478;2024-01-30T15:07:52;95106.59;;;-26.38
70415;BMP280;57837;52.064;113.478;2024-01-30T15:10:58;95107.38;;;-26.22
70415;BMP280;57837;52.064;113.478;2024-01-30T15:14:02;95108.88;;;-26.21
70415;BMP280;57837;52.064;113.478;2024-01-30T15:17:06;95118.91;;;-26.56
70415;BMP280;57837;52.064;113.478;2024-01-30T15:20:10;95112.78;;;-26.60
70415;BMP280;57837;52.064;113.478;2024-01-30T15:23:14;95111.00;;;-26.42
70415;BMP280;57837;52.064;113.478;2024-01-30T15:26:19;95108.41;;;-26.24
70415;BMP280;57837;52.064;113.478;2024-01-30T15:29:23;95115.25;;;-26.52
70415;BMP280;57837;52.064;113.478;2024-01-30T15:32:27;95110.66;;;-26.63
70415;BMP280;57837;52.064;113.478;2024-01-30T15:35:32;95116.16;;;-26.61
70415;BMP280;57837;52.064;113.478;2024-01-30T15:38:38;95120.06;;;-26.77
70415;BMP280;57837;52.064;113.478;2024-01-30T15:41:41;95119.19;;;-26.68
70415;BMP280;57837;52.064;113.478;2024-01-30T15:44:45;95116.59;;;-26.58
70415;BMP280;57837;52.064;113.478;2024-01-30T15:47:50;95114.00;;;-26.73
70415;BMP280;57837;52.064;113.478;2024-01-30T15:50:54;95124.47;;;-26.88
70415;BMP280;57837;52.064;113.478;2024-01-30T15:53:58;95132.09;;;-26.75
70415;BMP280;57837;52.064;113.478;2024-01-30T15:57:02;95124.22;;;-26.69
70415;BMP280;57837;52.064;113.478;2024-01-30T16:00:07;95136.28;;;-26.94
70415;BMP280;57837;52.064;113.478;2024-01-30T16:03:12;95139.56;;;-27.11
70415;BMP280;57837;52.064;113.478;2024-01-30T16:06:16;95139.63;;;-27.29
70415;BMP280;57837;52.064;113.478;2024-01-30T16:09:24;95142.25;;;-27.22
70415;BMP280;57837;52.064;113.478;2024-01-30T16:12:28;95151.81;;;-26.95
70415;BMP280;57837;52.064;113.478;2024-01-30T16:15:32;95150.28;;;-26.87
70415;BMP280;57837;52.064;113.478;2024-01-30T16:18:36;95149.56;;;-27.14
70415;BMP280;57837;52.064;113.478;2024-01-30T16:21:40;95156.25;;;-27.50
70415;BMP280;57837;52.064;113.478;2024-01-30T16:24:46;95152.22;;;-27.33
70415;BMP280;57837;52.064;113.478;2024-01-30T16:27:51;95154.22;;;-27.29
70415;BMP280;57837;52.064;113.478;2024-01-30T16:30:56;95158.59;;;-27.32
70415;BMP280;57837;52.064;113.478;2024-01-30T16:34:00;95169.66;;;-27.12
70415;BMP280;57837;52.064;113.478;2024-01-30T16:37:05;95172.78;;;-27.28
70415;BMP280;57837;52.064;113.478;2024-01-30T16:40:09;95178.88;;;-27.24
70415;BMP280;57837;52.064;113.478;2024-01-30T16:43:13;95177.00;;;-27.30
70415;BMP280;57837;52.064;113.478;2024-01-30T16:46:16;95177.84;;;-27.39
70415;BMP280;57837;52.064;113.478;2024-01-30T16:49:20;95189.44;;;-27.59
70415;BMP280;57837;52.064;113.478;2024-01-30T16:52:24;95192.06;;;-27.70
70415;BMP280;57837;52.064;113.478;2024-01-30T16:55:29;95186.63;;;-27.72
70415;BMP280;57837;52.064;113.478;2024-01-30T16:58:32;95186.41;;;-27.97